createdAt,value
2022-12-09T00:00:06.778Z,5.56
2022-12-09T00:00:39.600Z,5.59
2022-12-09T00:00:52.366Z,5.54
2022-12-09T00:01:10.768Z,5.55
2022-12-09T00:01:44.419Z,5.56
2022-12-09T00:01:57.773Z,5.53
2022-12-09T00:02:30.761Z,5.53
2022-12-09T00:02:45.094Z,5.58
2022-12-09T00:02:58.945Z,5.56
2022-12-09T00:03:31.548Z,5.55
2022-12-09T00:04:04.546Z,5.54
2022-12-09T00:04:38.994Z,5.51
2022-12-09T00:05:32.848Z,5.55
2022-12-09T00:05:45.976Z,5.55
2022-12-09T00:05:58.826Z,5.52
2022-12-09T00:06:17.459Z,5.52
2022-12-09T00:06:30.435Z,5.54
2022-12-09T00:06:43.326Z,5.55
2022-12-09T00:06:56.179Z,5.56
2022-12-09T00:07:08.986Z,5.57
2022-12-09T00:07:22.719Z,5.54
2022-12-09T00:07:36.457Z,5.55
2022-12-09T00:08:09.257Z,5.54
2022-12-09T00:08:22.372Z,5.55
2022-12-09T00:08:55.502Z,5.54
2022-12-09T00:09:27.778Z,5.57
2022-12-09T00:10:00.411Z,5.56
2022-12-09T00:10:13.439Z,5.53
2022-12-09T00:10:26.311Z,5.55
2022-12-09T00:10:39.401Z,5.54
2022-12-09T00:10:52.472Z,5.59
2022-12-09T00:11:07.414Z,5.56
2022-12-09T00:11:20.858Z,5.57
2022-12-09T00:11:53.507Z,5.60
2022-12-09T00:12:06.221Z,5.56
2022-12-09T00:12:38.910Z,5.57
2022-12-09T00:12:55.244Z,5.56
2022-12-09T00:13:08.383Z,5.58
2022-12-09T00:13:21.337Z,5.57
2022-12-09T00:13:34.545Z,5.55
2022-12-09T00:13:50.946Z,5.54
2022-12-09T00:14:03.780Z,5.58
2022-12-09T00:14:16.611Z,5.58
2022-12-09T00:14:30.454Z,5.57
2022-12-09T00:14:43.363Z,5.54
2022-12-09T00:14:56.258Z,5.53
2022-12-09T00:15:09.445Z,5.57
2022-12-09T00:15:22.737Z,5.56
2022-12-09T00:15:35.663Z,5.59
2022-12-09T00:15:48.805Z,5.59
2022-12-09T00:16:23.401Z,5.59
2022-12-09T00:17:14.945Z,5.61
2022-12-09T00:17:30.459Z,5.57
2022-12-09T00:17:43.350Z,5.55
2022-12-09T00:17:56.214Z,5.54
2022-12-09T00:18:47.898Z,5.53
2022-12-09T00:19:00.588Z,5.54
2022-12-09T00:19:14.735Z,5.52
2022-12-09T00:19:27.654Z,5.55
2022-12-09T00:19:40.690Z,5.52
2022-12-09T00:19:53.694Z,5.54
2022-12-09T00:20:07.586Z,5.54
2022-12-09T00:20:20.932Z,5.52
2022-12-09T00:20:33.866Z,5.50
2022-12-09T00:21:19.409Z,5.54
2022-12-09T00:21:32.872Z,5.50
2022-12-09T00:22:23.611Z,5.51
2022-12-09T00:22:57.198Z,5.57
2022-12-09T00:23:29.930Z,5.59
2022-12-09T00:24:05.079Z,5.62
2022-12-09T00:24:18.565Z,5.61
2022-12-09T00:24:31.393Z,5.61
2022-12-09T00:24:44.229Z,5.57
2022-12-09T00:25:17.482Z,5.55
2022-12-09T00:25:30.290Z,5.58
2022-12-09T00:25:43.652Z,5.59
2022-12-09T00:25:57.325Z,5.57
2022-12-09T00:26:30.548Z,5.53
2022-12-09T00:27:03.281Z,5.52
2022-12-09T00:27:16.143Z,5.50
2022-12-09T00:27:29.023Z,5.47
2022-12-09T00:27:42.063Z,5.46
2022-12-09T00:27:55.131Z,5.50
2022-12-09T00:28:07.928Z,5.50
2022-12-09T00:28:21.167Z,5.51
2022-12-09T00:28:34.940Z,5.50
2022-12-09T00:28:48.915Z,5.53
2022-12-09T00:29:02.173Z,5.54
2022-12-09T00:29:34.866Z,5.58
2022-12-09T00:29:47.769Z,5.55
2022-12-09T00:30:01.078Z,5.58
2022-12-09T00:30:14.994Z,5.61
2022-12-09T00:30:28.272Z,5.60
2022-12-09T00:30:42.210Z,5.61
2022-12-09T00:30:58.647Z,5.60
2022-12-09T00:31:16.829Z,5.62
2022-12-09T00:31:32.579Z,5.63
2022-12-09T00:32:05.059Z,5.59
2022-12-09T00:32:18.310Z,5.58
2022-12-09T00:32:31.611Z,5.57
2022-12-09T00:32:44.601Z,5.58
2022-12-09T00:32:57.443Z,5.54
2022-12-09T00:33:33.219Z,5.52
2022-12-09T00:33:45.986Z,5.52
2022-12-09T00:34:03.042Z,5.52
2022-12-09T00:34:16.141Z,5.49
2022-12-09T00:34:29.046Z,5.49
2022-12-09T00:34:42.475Z,5.50
2022-12-09T00:35:33.568Z,5.52
2022-12-09T00:36:25.387Z,5.49
2022-12-09T00:37:17.064Z,5.52
2022-12-09T00:37:30.161Z,5.51
2022-12-09T00:38:02.713Z,5.50
2022-12-09T00:38:15.758Z,5.47
2022-12-09T00:38:28.939Z,5.47
2022-12-09T00:38:42.460Z,5.45
2022-12-09T00:39:34.136Z,5.45
2022-12-09T00:40:07.587Z,5.51
2022-12-09T00:40:20.940Z,5.50
2022-12-09T00:41:13.189Z,5.51
2022-12-09T00:41:46.132Z,5.50
2022-12-09T00:41:59.057Z,5.47
2022-12-09T00:42:11.884Z,5.48
2022-12-09T00:42:24.714Z,5.47
2022-12-09T00:42:37.630Z,5.48
2022-12-09T00:42:50.531Z,5.49
2022-12-09T00:43:03.395Z,5.50
2022-12-09T00:43:16.244Z,5.49
2022-12-09T00:43:29.297Z,5.50
2022-12-09T00:43:43.758Z,5.49
2022-12-09T00:44:35.109Z,5.49
2022-12-09T00:44:47.885Z,5.55
2022-12-09T00:45:20.470Z,5.55
2022-12-09T00:45:34.340Z,5.59
2022-12-09T00:45:47.337Z,5.58
2022-12-09T00:46:00.668Z,5.58
2022-12-09T00:46:14.059Z,5.58
2022-12-09T00:46:26.997Z,5.59
2022-12-09T00:46:42.135Z,5.59
2022-12-09T00:46:55.613Z,5.61
2022-12-09T00:47:09.383Z,5.61
2022-12-09T00:47:22.764Z,5.59
2022-12-09T00:47:36.244Z,5.59
2022-12-09T00:47:49.206Z,5.57
2022-12-09T00:48:02.464Z,5.55
2022-12-09T00:48:15.368Z,5.55
2022-12-09T00:48:28.321Z,5.58
2022-12-09T00:48:41.652Z,5.57
2022-12-09T00:49:14.033Z,5.57
2022-12-09T00:49:27.041Z,5.54
2022-12-09T00:49:41.114Z,5.56
2022-12-09T00:49:54.098Z,5.58
2022-12-09T00:50:07.707Z,5.57
2022-12-09T00:50:20.743Z,5.59
2022-12-09T00:50:33.640Z,5.56
2022-12-09T00:50:46.619Z,5.55
2022-12-09T00:51:38.268Z,5.53
2022-12-09T00:51:51.424Z,5.55
2022-12-09T00:52:04.572Z,5.59
2022-12-09T00:52:18.448Z,5.58
2022-12-09T00:52:31.362Z,5.58
2022-12-09T00:52:44.166Z,5.58
2022-12-09T00:52:57.148Z,5.54
2022-12-09T00:53:30.077Z,5.52
2022-12-09T00:53:43.306Z,5.51
2022-12-09T00:53:56.752Z,5.52
2022-12-09T00:54:09.734Z,5.53
2022-12-09T00:54:22.848Z,5.53
2022-12-09T00:54:36.871Z,5.53
2022-12-09T00:54:50.154Z,5.54
2022-12-09T00:55:22.929Z,5.52
2022-12-09T00:55:36.094Z,5.50
2022-12-09T00:55:49.191Z,5.54
2022-12-09T00:56:02.244Z,5.54
2022-12-09T00:56:15.247Z,5.51
2022-12-09T00:56:28.925Z,5.53
2022-12-09T00:56:41.820Z,5.54
2022-12-09T00:56:59.636Z,5.52
2022-12-09T00:57:32.620Z,5.51
2022-12-09T00:58:05.515Z,5.51
2022-12-09T00:58:18.616Z,5.54
2022-12-09T00:58:31.658Z,5.53
2022-12-09T00:58:45.845Z,5.54
2022-12-09T00:58:59.292Z,5.50
2022-12-09T00:59:12.203Z,5.54
2022-12-09T00:59:45.070Z,5.54
2022-12-09T00:59:58.329Z,5.50
2022-12-09T01:00:12.225Z,5.53
2022-12-09T01:00:44.633Z,5.54
2022-12-09T01:00:57.603Z,5.51
2022-12-09T01:01:10.582Z,5.53
2022-12-09T01:01:23.726Z,5.53
2022-12-09T01:01:36.672Z,5.55
2022-12-09T01:02:09.653Z,5.57
2022-12-09T01:02:22.793Z,5.61
2022-12-09T01:02:55.501Z,5.55
2022-12-09T01:03:15.306Z,5.53
2022-12-09T01:04:08.793Z,5.52
2022-12-09T01:04:22.160Z,5.57
2022-12-09T01:04:35.201Z,5.59
2022-12-09T01:05:08.074Z,5.54
2022-12-09T01:05:21.388Z,5.57
2022-12-09T01:05:37.338Z,5.57
2022-12-09T01:05:50.509Z,5.60
2022-12-09T01:06:24.040Z,5.59
2022-12-09T01:06:37.160Z,5.59
2022-12-09T01:06:50.013Z,5.63
2022-12-09T01:07:02.963Z,5.62
2022-12-09T01:07:37.606Z,5.61
2022-12-09T01:07:51.655Z,5.59
2022-12-09T01:08:04.959Z,5.57
2022-12-09T01:08:39.297Z,5.59
2022-12-09T01:08:52.453Z,5.59
2022-12-09T01:09:06.016Z,5.51
2022-12-09T01:09:19.187Z,5.52
2022-12-09T01:09:52.074Z,5.52
2022-12-09T01:10:24.762Z,5.51
2022-12-09T01:10:37.952Z,5.48
2022-12-09T01:10:50.841Z,5.45
2022-12-09T01:11:17.378Z,5.49
2022-12-09T01:11:50.117Z,5.50
2022-12-09T01:12:03.979Z,5.48
2022-12-09T01:12:39.033Z,5.45
2022-12-09T01:12:52.424Z,5.47
2022-12-09T01:13:05.500Z,5.50
2022-12-09T01:13:18.549Z,5.49
2022-12-09T01:13:31.620Z,5.52
2022-12-09T01:13:45.163Z,5.51
2022-12-09T01:14:00.867Z,5.51
2022-12-09T01:14:14.360Z,5.51
2022-12-09T01:14:27.410Z,5.53
2022-12-09T01:14:40.692Z,5.52
2022-12-09T01:15:32.696Z,5.50
2022-12-09T01:15:46.025Z,5.49
2022-12-09T01:15:59.512Z,5.52
2022-12-09T01:16:34.019Z,5.52
2022-12-09T01:16:47.339Z,5.54
2022-12-09T01:17:00.624Z,5.53
2022-12-09T01:17:14.953Z,5.50
2022-12-09T01:17:28.157Z,5.52
2022-12-09T01:17:42.262Z,5.51
2022-12-09T01:18:14.263Z,5.50
2022-12-09T01:18:27.410Z,5.49
2022-12-09T01:19:01.585Z,5.50
2022-12-09T01:19:16.127Z,5.54
2022-12-09T01:19:29.235Z,5.51
2022-12-09T01:20:02.268Z,5.54
2022-12-09T01:20:15.163Z,5.53
2022-12-09T01:20:28.114Z,5.51
2022-12-09T01:20:41.051Z,5.48
2022-12-09T01:20:59.809Z,5.47
2022-12-09T01:21:32.616Z,5.47
2022-12-09T01:21:45.757Z,5.44
2022-12-09T01:21:58.638Z,5.44
2022-12-09T01:22:11.671Z,5.46
2022-12-09T01:22:26.451Z,5.46
2022-12-09T01:22:39.609Z,5.45
2022-12-09T01:22:52.575Z,5.42
2022-12-09T01:23:05.466Z,5.44
2022-12-09T01:23:19.020Z,5.44
2022-12-09T01:23:32.110Z,5.44
2022-12-09T01:23:45.158Z,5.43
2022-12-09T01:23:58.178Z,5.44
2022-12-09T01:24:11.557Z,5.47
2022-12-09T01:24:24.604Z,5.52
2022-12-09T01:24:57.453Z,5.50
2022-12-09T01:25:10.566Z,5.54
2022-12-09T01:25:23.689Z,5.52
2022-12-09T01:25:38.305Z,5.49
2022-12-09T01:26:11.335Z,5.51
2022-12-09T01:26:43.862Z,5.47
2022-12-09T01:26:57.163Z,5.44
2022-12-09T01:27:10.167Z,5.44
2022-12-09T01:27:23.095Z,5.41
2022-12-09T01:27:36.059Z,5.40
2022-12-09T01:27:48.986Z,5.43
2022-12-09T01:28:02.355Z,5.45
2022-12-09T01:28:15.181Z,5.48
2022-12-09T01:28:52.694Z,5.44
2022-12-09T01:29:06.347Z,5.46
2022-12-09T01:29:19.566Z,5.50
2022-12-09T01:29:32.413Z,5.51
2022-12-09T01:29:45.514Z,5.48
2022-12-09T01:29:58.422Z,5.49
2022-12-09T01:30:33.292Z,5.54
2022-12-09T01:30:46.180Z,5.50
2022-12-09T01:31:14.703Z,5.51
2022-12-09T01:31:27.990Z,5.51
2022-12-09T01:31:41.093Z,5.54
2022-12-09T01:32:14.709Z,5.56
2022-12-09T01:32:27.645Z,5.57
2022-12-09T01:32:41.501Z,5.53
2022-12-09T01:32:58.373Z,5.52
2022-12-09T01:33:49.939Z,5.55
2022-12-09T01:34:02.843Z,5.49
2022-12-09T01:34:16.224Z,5.47
2022-12-09T01:34:29.039Z,5.50
2022-12-09T01:34:42.448Z,5.51
2022-12-09T01:35:15.090Z,5.53
2022-12-09T01:35:28.344Z,5.48
2022-12-09T01:35:41.615Z,5.49
2022-12-09T01:36:33.734Z,5.50
2022-12-09T01:36:48.453Z,5.47
2022-12-09T01:37:21.151Z,5.52
2022-12-09T01:37:53.664Z,5.52
2022-12-09T01:38:06.509Z,5.51
2022-12-09T01:38:19.628Z,5.54
2022-12-09T01:38:32.439Z,5.53
2022-12-09T01:38:45.826Z,5.49
2022-12-09T01:39:18.644Z,5.50
2022-12-09T01:39:32.044Z,5.46
2022-12-09T01:40:07.410Z,5.50
2022-12-09T01:40:20.768Z,5.50
2022-12-09T01:40:34.237Z,5.53
2022-12-09T01:40:47.669Z,5.53
2022-12-09T01:41:00.579Z,5.57
2022-12-09T01:41:14.274Z,5.62
2022-12-09T01:41:27.486Z,5.61
2022-12-09T01:42:03.410Z,5.62
2022-12-09T01:42:21.083Z,5.60
2022-12-09T01:42:33.998Z,5.58
2022-12-09T01:42:46.940Z,5.61
2022-12-09T01:43:00.138Z,5.57
2022-12-09T01:43:19.135Z,5.52
2022-12-09T01:44:13.576Z,5.55
2022-12-09T01:44:26.797Z,5.52
2022-12-09T01:44:39.880Z,5.54
2022-12-09T01:45:20.766Z,5.51
2022-12-09T01:46:12.991Z,5.51
2022-12-09T01:46:26.955Z,5.49
2022-12-09T01:47:21.452Z,5.47
2022-12-09T01:47:34.380Z,5.56
2022-12-09T01:48:31.227Z,5.55
2022-12-09T01:48:45.424Z,5.59
2022-12-09T01:48:58.728Z,5.54
2022-12-09T01:49:15.091Z,5.56
2022-12-09T01:49:34.968Z,5.58
2022-12-09T01:49:48.328Z,5.54
2022-12-09T01:50:01.478Z,5.54
2022-12-09T01:50:14.885Z,5.53
2022-12-09T01:50:28.039Z,5.54
2022-12-09T01:50:44.003Z,5.52
2022-12-09T01:51:18.432Z,5.53
2022-12-09T01:51:31.680Z,5.53
2022-12-09T01:51:45.680Z,5.51
2022-12-09T01:52:10.372Z,5.50
2022-12-09T01:52:23.691Z,5.47
2022-12-09T01:52:36.577Z,5.46
2022-12-09T01:52:49.395Z,5.50
2022-12-09T01:53:02.684Z,5.46
2022-12-09T01:53:15.510Z,5.44
2022-12-09T01:53:31.105Z,5.49
2022-12-09T01:54:22.226Z,5.44
2022-12-09T01:55:13.498Z,5.44
2022-12-09T01:56:10.323Z,5.52
2022-12-09T01:56:31.118Z,5.58
2022-12-09T01:56:44.069Z,5.56
2022-12-09T01:56:56.957Z,5.55
2022-12-09T01:57:10.129Z,5.59
2022-12-09T01:57:23.017Z,5.58
2022-12-09T01:57:36.634Z,5.54
2022-12-09T01:58:28.367Z,5.56
2022-12-09T01:59:19.402Z,5.61
2022-12-09T01:59:33.490Z,5.57
2022-12-09T02:00:07.553Z,5.54
2022-12-09T02:00:21.510Z,5.53
2022-12-09T02:00:34.720Z,5.53
2022-12-09T02:01:07.298Z,5.54
2022-12-09T02:01:40.505Z,5.55
2022-12-09T02:02:16.220Z,5.53
2022-12-09T02:02:30.727Z,5.52
2022-12-09T02:03:03.864Z,5.51
2022-12-09T02:03:16.935Z,5.50
2022-12-09T02:03:29.999Z,5.53
2022-12-09T02:03:43.125Z,5.54
2022-12-09T02:03:56.224Z,5.55
2022-12-09T02:04:09.347Z,5.54
2022-12-09T02:04:42.222Z,5.55
2022-12-09T02:04:55.942Z,5.53
2022-12-09T02:05:09.477Z,5.49
2022-12-09T02:05:24.487Z,5.50
2022-12-09T02:05:37.918Z,5.52
2022-12-09T02:05:51.055Z,5.47
2022-12-09T02:06:04.438Z,5.52
2022-12-09T02:06:17.478Z,5.54
2022-12-09T02:06:30.333Z,5.53
2022-12-09T02:06:43.507Z,5.53
2022-12-09T02:06:57.967Z,5.52
2022-12-09T02:07:10.807Z,5.56
2022-12-09T02:08:16.293Z,5.52
2022-12-09T02:08:48.146Z,5.52
2022-12-09T02:09:22.671Z,5.53
2022-12-09T02:09:36.926Z,5.56
2022-12-09T02:09:53.760Z,5.58
2022-12-09T02:10:11.305Z,5.59
2022-12-09T02:10:52.289Z,5.63
2022-12-09T02:11:09.901Z,5.57
2022-12-09T02:11:31.415Z,5.53
2022-12-09T02:11:51.533Z,5.53
2022-12-09T02:12:30.025Z,5.56
2022-12-09T02:13:08.946Z,5.58
2022-12-09T02:14:08.415Z,5.58
2022-12-09T02:14:53.831Z,5.54
2022-12-09T02:15:32.755Z,5.51
2022-12-09T02:15:52.781Z,5.44
2022-12-09T02:16:09.070Z,5.48
2022-12-09T02:16:35.834Z,5.49
2022-12-09T02:16:56.230Z,5.51
2022-12-09T02:17:27.936Z,5.50
2022-12-09T02:18:03.568Z,5.50
2022-12-09T02:18:19.749Z,5.49
2022-12-09T02:18:52.855Z,5.46
2022-12-09T02:54:11.472Z,5.50
2022-12-09T02:54:24.732Z,5.49
2022-12-09T02:54:37.873Z,5.47
2022-12-09T02:54:51.246Z,5.46
2022-12-09T02:55:07.017Z,5.43
2022-12-09T02:55:20.493Z,5.43
2022-12-09T02:55:33.619Z,5.38
2022-12-09T02:55:47.552Z,5.36
2022-12-09T02:56:18.926Z,5.40
2022-12-09T02:56:33.861Z,5.40
2022-12-09T02:56:54.154Z,5.51
2022-12-09T02:57:26.229Z,5.51
2022-12-09T02:57:39.365Z,5.56
2022-12-09T02:57:53.998Z,5.53
2022-12-09T02:58:07.349Z,5.51
2022-12-09T02:58:20.219Z,5.49
2022-12-09T02:58:33.280Z,5.53
2022-12-09T02:58:46.413Z,5.54
2022-12-09T02:59:19.192Z,5.56
2022-12-09T02:59:32.154Z,5.54
2022-12-09T02:59:45.026Z,5.54
2022-12-09T02:59:58.376Z,5.54
2022-12-09T03:00:12.968Z,5.53
2022-12-09T03:00:27.736Z,5.54
2022-12-09T03:00:41.934Z,5.52
2022-12-09T03:00:56.483Z,5.50
2022-12-09T03:01:27.516Z,5.52
2022-12-09T03:02:19.101Z,5.56
2022-12-09T03:02:37.179Z,5.51
2022-12-09T03:02:53.497Z,5.46
2022-12-09T03:03:07.658Z,5.48
2022-12-09T03:03:59.645Z,5.48
2022-12-09T03:04:16.885Z,5.51
2022-12-09T03:05:03.208Z,5.54
2022-12-09T03:06:10.160Z,5.55
2022-12-09T03:06:45.579Z,5.58
2022-12-09T03:07:24.668Z,5.61
2022-12-09T03:08:06.164Z,5.57
2022-12-09T03:08:27.700Z,5.61
2022-12-09T03:09:04.297Z,5.61
2022-12-09T03:09:30.793Z,5.58
2022-12-09T03:10:28.394Z,5.62
2022-12-09T03:10:51.453Z,5.55
2022-12-09T03:11:17.275Z,5.54
2022-12-09T03:11:50.831Z,5.51
2022-12-09T03:12:23.575Z,5.54
2022-12-09T03:12:36.635Z,5.55
2022-12-09T03:13:33.938Z,5.53
2022-12-09T03:14:10.498Z,5.53
2022-12-09T03:14:27.769Z,5.54
2022-12-09T03:14:45.966Z,5.52
2022-12-09T03:15:19.313Z,5.54
2022-12-09T03:15:55.092Z,5.54
2022-12-09T03:16:34.403Z,5.56
2022-12-09T03:17:59.016Z,5.50
2022-12-09T03:18:13.297Z,5.55
2022-12-09T03:18:26.742Z,5.58
2022-12-09T03:19:05.328Z,5.56
2022-12-09T03:20:19.049Z,5.54
2022-12-09T03:20:51.967Z,5.52
2022-12-09T03:21:25.439Z,5.55
2022-12-09T03:21:42.835Z,5.50
2022-12-09T03:21:58.498Z,5.50
2022-12-09T03:22:22.414Z,5.51
2022-12-09T03:22:35.748Z,5.54
2022-12-09T03:23:09.506Z,5.56
2022-12-09T03:23:43.910Z,5.55
2022-12-09T03:24:19.734Z,5.51
2022-12-09T03:25:05.837Z,5.57
2022-12-09T03:25:39.757Z,5.51
2022-12-09T03:25:53.187Z,5.54
2022-12-09T03:26:27.093Z,5.59
2022-12-09T03:27:01.214Z,5.56
2022-12-09T03:27:37.100Z,5.55
2022-12-09T03:27:57.979Z,5.54
2022-12-09T03:28:23.858Z,5.56
2022-12-09T03:28:42.408Z,5.55
2022-12-09T03:28:56.398Z,5.57
2022-12-09T03:29:13.362Z,5.57
2022-12-09T03:29:47.520Z,5.57
2022-12-09T03:30:20.546Z,5.55
2022-12-09T03:30:54.515Z,5.62
2022-12-09T03:31:09.133Z,5.59
2022-12-09T03:31:22.383Z,5.58
2022-12-09T03:31:56.232Z,5.60
2022-12-09T03:32:12.519Z,5.57
2022-12-09T03:32:45.167Z,5.55
2022-12-09T03:33:18.180Z,5.55
2022-12-09T03:33:31.492Z,5.54
2022-12-09T03:34:05.295Z,5.54
2022-12-09T03:34:20.592Z,5.52
2022-12-09T03:34:36.220Z,5.52
2022-12-09T03:35:10.026Z,5.58
2022-12-09T03:35:25.361Z,5.59
2022-12-09T03:35:57.014Z,5.62
2022-12-09T03:36:10.822Z,5.58
2022-12-09T03:36:47.321Z,5.59
2022-12-09T03:37:00.681Z,5.55
2022-12-09T03:37:33.275Z,5.53
2022-12-09T03:38:07.325Z,5.52
2022-12-09T03:38:40.394Z,5.53
2022-12-09T03:38:53.779Z,5.51
2022-12-09T03:39:17.262Z,5.53
2022-12-09T03:39:33.109Z,5.53
2022-12-09T03:39:46.983Z,5.55
2022-12-09T03:40:24.536Z,5.56
2022-12-09T03:41:30.655Z,5.59
2022-12-09T03:42:08.655Z,5.59
2022-12-09T03:42:24.545Z,5.58
2022-12-09T03:42:40.271Z,5.59
2022-12-09T03:42:58.335Z,5.61
2022-12-09T03:43:24.471Z,5.62
2022-12-09T03:43:38.855Z,5.60
2022-12-09T03:43:55.491Z,5.57
2022-12-09T03:44:09.723Z,5.62
2022-12-09T03:44:57.330Z,5.62
2022-12-09T03:45:11.483Z,5.53
2022-12-09T03:45:24.863Z,5.50
2022-12-09T03:45:57.594Z,5.52
2022-12-09T03:46:10.772Z,5.54
2022-12-09T03:46:24.403Z,5.54
2022-12-09T03:46:37.789Z,5.55
2022-12-09T03:46:51.049Z,5.59
2022-12-09T03:47:06.145Z,5.55
2022-12-09T03:47:19.613Z,5.50
2022-12-09T03:47:33.416Z,5.49
2022-12-09T03:47:47.592Z,5.49
2022-12-09T03:48:01.440Z,5.50
2022-12-09T03:48:14.608Z,5.52
2022-12-09T03:48:48.229Z,5.53
2022-12-09T03:49:01.743Z,5.51
2022-12-09T03:49:15.507Z,5.52
2022-12-09T03:49:28.402Z,5.51
2022-12-09T03:49:41.379Z,5.55
2022-12-09T03:49:54.220Z,5.54
2022-12-09T03:50:07.926Z,5.54
2022-12-09T03:50:22.544Z,5.53
2022-12-09T03:50:40.715Z,5.55
2022-12-09T03:51:10.075Z,5.52
2022-12-09T03:51:28.584Z,5.51
2022-12-09T03:51:46.865Z,5.51
2022-12-09T03:52:12.168Z,5.50
2022-12-09T03:52:51.750Z,5.53
2022-12-09T03:53:06.901Z,5.59
2022-12-09T03:53:23.282Z,5.58
2022-12-09T03:53:49.795Z,5.61
2022-12-09T03:54:24.206Z,5.55
2022-12-09T03:54:47.376Z,5.57
2022-12-09T03:55:15.700Z,5.54
2022-12-09T03:56:11.094Z,5.54
2022-12-09T03:56:46.175Z,5.58
2022-12-09T03:56:59.382Z,5.56
2022-12-09T03:57:18.487Z,5.56
2022-12-09T03:57:32.436Z,5.57
2022-12-09T03:57:45.786Z,5.56
2022-12-09T03:57:58.796Z,5.59
2022-12-09T03:58:11.985Z,5.57
2022-12-09T03:58:25.114Z,5.54
2022-12-09T03:58:58.468Z,5.51
2022-12-09T03:59:13.172Z,5.53
2022-12-09T03:59:28.802Z,5.55
2022-12-09T04:00:20.296Z,5.52
2022-12-09T04:00:36.087Z,5.53
2022-12-09T04:01:09.652Z,5.54
2022-12-09T04:01:23.950Z,5.50
2022-12-09T04:01:37.290Z,5.50
2022-12-09T04:01:50.375Z,5.54
2022-12-09T04:02:07.569Z,5.52
2022-12-09T04:02:20.899Z,5.46
2022-12-09T04:02:53.693Z,5.49
2022-12-09T04:03:06.929Z,5.52
2022-12-09T04:03:20.001Z,5.51
2022-12-09T04:03:54.197Z,5.52
2022-12-09T04:04:27.343Z,5.54
2022-12-09T04:04:41.508Z,5.51
2022-12-09T04:04:55.117Z,5.51
2022-12-09T04:05:08.957Z,5.53
2022-12-09T04:05:22.586Z,5.53
2022-12-09T04:05:35.720Z,5.52
2022-12-09T04:06:27.114Z,5.49
2022-12-09T04:06:41.878Z,5.50
2022-12-09T04:06:56.984Z,5.52
2022-12-09T04:07:10.295Z,5.55
2022-12-09T04:07:42.716Z,5.51
2022-12-09T04:07:56.234Z,5.50
2022-12-09T04:08:09.652Z,5.48
2022-12-09T04:08:22.979Z,5.45
2022-12-09T04:08:36.361Z,5.46
2022-12-09T04:09:10.692Z,5.49
2022-12-09T04:09:26.172Z,5.47
2022-12-09T04:09:39.495Z,5.48
2022-12-09T04:10:12.389Z,5.50
2022-12-09T04:10:25.541Z,5.49
2022-12-09T04:10:38.774Z,5.49
2022-12-09T04:10:52.120Z,5.54
2022-12-09T04:11:25.712Z,5.50
2022-12-09T04:11:39.429Z,5.54
2022-12-09T04:11:53.126Z,5.55
2022-12-09T04:12:06.244Z,5.54
2022-12-09T04:12:57.773Z,5.52
2022-12-09T04:13:10.623Z,5.55
2022-12-09T04:13:23.797Z,5.55
2022-12-09T04:13:56.579Z,5.55
2022-12-09T04:14:15.355Z,5.56
2022-12-09T04:14:29.144Z,5.55
2022-12-09T04:15:02.042Z,5.55
2022-12-09T04:15:15.695Z,5.47
2022-12-09T04:15:28.956Z,5.49
2022-12-09T04:16:04.163Z,5.50
2022-12-09T04:16:17.213Z,5.53
2022-12-09T04:16:30.575Z,5.56
2022-12-09T04:16:44.708Z,5.59
2022-12-09T04:16:57.880Z,5.63
2022-12-09T04:17:12.038Z,5.59
2022-12-09T04:17:44.792Z,5.54
2022-12-09T04:17:57.966Z,5.47
2022-12-09T04:18:10.975Z,5.47
2022-12-09T04:18:25.514Z,5.50
2022-12-09T04:18:39.244Z,5.55
2022-12-09T04:18:52.965Z,5.55
2022-12-09T04:19:05.820Z,5.54
2022-12-09T04:19:19.608Z,5.56
2022-12-09T04:19:32.762Z,5.57
2022-12-09T04:19:45.736Z,5.56
2022-12-09T04:19:58.962Z,5.53
2022-12-09T04:20:50.593Z,5.55
2022-12-09T04:21:09.936Z,5.52
2022-12-09T04:21:42.831Z,5.55
2022-12-09T04:21:56.052Z,5.67
2022-12-09T04:22:29.643Z,5.61
2022-12-09T04:23:02.980Z,5.60
2022-12-09T04:23:16.408Z,5.58
2022-12-09T04:23:29.232Z,5.54
2022-12-09T04:24:01.975Z,5.55
2022-12-09T04:24:14.964Z,5.54
2022-12-09T04:24:28.387Z,5.57
2022-12-09T04:25:01.422Z,5.58
2022-12-09T04:25:52.451Z,5.61
2022-12-09T04:26:05.577Z,5.63
2022-12-09T04:26:21.259Z,5.62
2022-12-09T04:26:53.999Z,5.61
2022-12-09T04:27:07.016Z,5.60
2022-12-09T04:27:22.051Z,5.60
2022-12-09T04:27:35.087Z,5.58
2022-12-09T04:27:48.108Z,5.59
2022-12-09T04:28:21.073Z,5.59
2022-12-09T04:29:12.692Z,5.61
2022-12-09T04:29:25.964Z,5.62
2022-12-09T04:29:39.890Z,5.61
2022-12-09T04:29:53.094Z,5.63
2022-12-09T04:30:07.495Z,5.64
2022-12-09T04:30:44.129Z,5.66
2022-12-09T04:31:17.574Z,5.59
2022-12-09T04:31:31.014Z,5.62
2022-12-09T04:31:44.040Z,5.59
2022-12-09T04:31:57.517Z,5.62
2022-12-09T04:32:30.512Z,5.64
2022-12-09T04:33:03.058Z,5.59
2022-12-09T04:33:16.497Z,5.59
2022-12-09T04:34:09.868Z,5.61
2022-12-09T04:34:23.190Z,5.62
2022-12-09T04:34:36.164Z,5.61
2022-12-09T04:34:49.423Z,5.62
2022-12-09T04:35:02.967Z,5.66
2022-12-09T04:35:16.300Z,5.65
2022-12-09T04:35:48.778Z,5.63
2022-12-09T04:36:21.826Z,5.58
2022-12-09T04:36:35.675Z,5.58
2022-12-09T04:37:08.699Z,5.54
2022-12-09T04:37:41.386Z,5.56
2022-12-09T04:37:54.330Z,5.54
2022-12-09T04:38:07.155Z,5.57
2022-12-09T04:38:20.231Z,5.56
2022-12-09T04:38:33.354Z,5.58
2022-12-09T04:38:46.513Z,5.55
2022-12-09T04:39:19.640Z,5.53
2022-12-09T04:39:52.408Z,5.54
2022-12-09T04:40:25.416Z,5.55
2022-12-09T04:40:39.227Z,5.55
2022-12-09T04:40:52.199Z,5.56
2022-12-09T04:41:05.625Z,5.57
2022-12-09T04:41:18.914Z,5.56
2022-12-09T04:41:32.068Z,5.59
2022-12-09T04:41:45.279Z,5.56
2022-12-09T04:41:58.527Z,5.56
2022-12-09T04:42:11.620Z,5.52
2022-12-09T04:42:24.986Z,5.55
2022-12-09T04:42:38.426Z,5.53
2022-12-09T04:42:51.395Z,5.54
2022-12-09T04:43:43.318Z,5.54
2022-12-09T04:43:56.955Z,5.61
2022-12-09T04:44:10.130Z,5.60
2022-12-09T04:44:42.669Z,5.54
2022-12-09T04:44:55.858Z,5.57
2022-12-09T04:45:09.372Z,5.61
2022-12-09T04:45:42.204Z,5.61
2022-12-09T04:46:06.433Z,5.64
2022-12-09T04:46:19.852Z,5.63
2022-12-09T04:46:33.242Z,5.62
2022-12-09T04:47:26.526Z,5.58
2022-12-09T04:47:39.849Z,5.63
2022-12-09T04:47:52.809Z,5.59
2022-12-09T04:48:25.450Z,5.56
2022-12-09T04:48:58.324Z,5.52
2022-12-09T04:49:11.356Z,5.51
2022-12-09T04:49:24.418Z,5.50
2022-12-09T04:50:17.196Z,5.51
2022-12-09T04:50:49.867Z,5.51
2022-12-09T04:51:03.213Z,5.54
2022-12-09T04:51:54.632Z,5.57
2022-12-09T04:52:07.442Z,5.63
2022-12-09T04:52:21.544Z,5.60
2022-12-09T04:52:35.332Z,5.57
2022-12-09T04:52:48.470Z,5.57
2022-12-09T04:53:21.244Z,5.57
2022-12-09T04:53:35.694Z,5.59
2022-12-09T04:54:12.407Z,5.59
2022-12-09T04:54:25.498Z,5.56
2022-12-09T04:54:39.228Z,5.58
2022-12-09T04:55:14.209Z,5.58
2022-12-09T04:55:27.441Z,5.58
2022-12-09T04:55:40.782Z,5.55
2022-12-09T04:56:03.825Z,5.57
2022-12-09T04:56:20.289Z,5.55
2022-12-09T04:56:33.227Z,5.55
2022-12-09T04:56:46.263Z,5.58
2022-12-09T04:56:59.707Z,5.61
2022-12-09T04:57:12.585Z,5.59
2022-12-09T04:57:45.226Z,5.61
2022-12-09T04:57:58.260Z,5.57
2022-12-09T04:58:11.073Z,5.56
2022-12-09T04:58:24.258Z,5.52
2022-12-09T04:58:37.225Z,5.53
2022-12-09T04:58:50.725Z,5.56
2022-12-09T04:59:04.306Z,5.58
2022-12-09T04:59:17.427Z,5.59
2022-12-09T04:59:31.697Z,5.59
2022-12-09T04:59:45.201Z,5.59
2022-12-09T04:59:58.076Z,5.61
2022-12-09T05:00:31.213Z,5.63
2022-12-09T05:00:44.381Z,5.58
2022-12-09T05:01:21.684Z,5.59
2022-12-09T05:01:38.061Z,5.58
2022-12-09T05:01:51.628Z,5.62
2022-12-09T05:02:04.929Z,5.63
2022-12-09T05:02:17.891Z,5.63
2022-12-09T05:02:31.484Z,5.63
2022-12-09T05:02:45.555Z,5.65
2022-12-09T05:02:59.039Z,5.64
2022-12-09T05:03:12.404Z,5.65
2022-12-09T05:03:48.518Z,5.60
2022-12-09T05:04:02.176Z,5.63
2022-12-09T05:04:15.574Z,5.57
2022-12-09T05:04:28.908Z,5.57
2022-12-09T05:04:43.034Z,5.59
2022-12-09T05:04:56.736Z,5.57
2022-12-09T05:05:09.950Z,5.57
2022-12-09T05:05:22.984Z,5.54
2022-12-09T05:05:40.135Z,5.51
2022-12-09T05:05:53.392Z,5.54
2022-12-09T05:06:07.977Z,5.55
2022-12-09T05:06:39.553Z,5.59
2022-12-09T05:06:52.937Z,5.59
2022-12-09T05:07:06.422Z,5.56
2022-12-09T05:07:20.213Z,5.52
2022-12-09T05:07:33.620Z,5.53
2022-12-09T05:07:46.830Z,5.54
2022-12-09T05:08:00.311Z,5.54
2022-12-09T05:08:13.535Z,5.56
2022-12-09T05:08:31.420Z,5.60
2022-12-09T05:08:45.231Z,5.62
2022-12-09T05:08:58.779Z,5.57
2022-12-09T05:09:13.390Z,5.60
2022-12-09T05:09:26.688Z,5.61
2022-12-09T05:09:40.334Z,5.57
2022-12-09T05:09:53.743Z,5.55
2022-12-09T05:10:26.541Z,5.57
2022-12-09T05:10:40.383Z,5.56
2022-12-09T05:11:32.172Z,5.53
2022-12-09T05:11:45.322Z,5.61
2022-12-09T05:11:58.285Z,5.60
2022-12-09T05:12:11.468Z,5.67
2022-12-09T05:12:25.302Z,5.70
2022-12-09T05:12:58.286Z,5.69
2022-12-09T05:13:11.401Z,5.59
2022-12-09T05:13:44.233Z,5.56
2022-12-09T05:13:57.906Z,5.55